createdAt,value
2022-08-12T00:02:29.323Z,10.30
2022-08-12T00:05:11.498Z,6.50
2022-08-12T00:07:53.410Z,9.55
2022-08-12T00:10:34.138Z,6.03
2022-08-12T00:13:16.487Z,7.15
2022-08-12T00:16:01.439Z,7.63
2022-08-12T00:18:42.462Z,9.27
2022-08-12T00:21:24.030Z,6.32
2022-08-12T00:24:07.586Z,10.50
2022-08-12T00:26:50.210Z,7.63
2022-08-12T00:29:32.831Z,6.45
2022-08-12T00:32:35.404Z,8.07
2022-08-12T00:35:14.595Z,9.98
2022-08-12T00:37:55.688Z,11.15
2022-08-12T00:40:36.554Z,5.80
2022-08-12T00:43:00.700Z,6.78
2022-08-12T00:45:26.199Z,8.38
2022-08-12T00:47:53.719Z,7.95
2022-08-12T00:50:19.596Z,8.80
2022-08-12T00:52:45.584Z,6.97
2022-08-12T00:55:09.239Z,9.85
2022-08-12T00:57:37.336Z,9.05
2022-08-12T01:00:08.505Z,7.30
2022-08-12T01:02:36.050Z,5.80
2022-08-12T01:05:18.937Z,7.68
2022-08-12T01:08:01.830Z,9.85
2022-08-12T01:10:44.707Z,6.25
2022-08-12T01:13:19.582Z,6.25
2022-08-12T01:15:46.052Z,7.15
2022-08-12T01:18:16.410Z,4.90
2022-08-12T01:20:49.988Z,7.75
2022-08-12T01:23:36.922Z,5.78
2022-08-12T01:26:06.852Z,5.57
2022-08-12T01:28:35.757Z,9.73
2022-08-12T01:31:04.536Z,4.55
2022-08-12T01:33:31.146Z,5.50
2022-08-12T01:36:08.323Z,5.72
2022-08-12T01:38:35.519Z,9.07
2022-08-12T01:41:03.847Z,5.63
2022-08-12T01:43:28.847Z,7.70
2022-08-12T01:46:06.240Z,5.10
2022-08-12T01:48:49.547Z,6.32
2022-08-12T01:52:15.462Z,8.45
2022-08-12T01:54:16.391Z,8.60
2022-08-12T01:56:53.497Z,7.53
2022-08-12T01:59:43.633Z,5.05
2022-08-12T02:02:16.848Z,6.50
2022-08-12T02:05:20.599Z,7.40
2022-08-12T02:08:30.303Z,8.43
2022-08-12T02:11:15.765Z,8.13
2022-08-12T02:14:06.477Z,4.93
2022-08-12T02:16:47.398Z,6.63
2022-08-12T02:19:46.451Z,8.68
2022-08-12T02:22:23.767Z,8.13
2022-08-12T02:24:51.291Z,7.50
2022-08-12T02:27:16.664Z,8.43
2022-08-12T02:29:43.207Z,7.15
2022-08-12T02:32:08.413Z,6.30
2022-08-12T02:34:32.905Z,8.95
2022-08-12T02:37:03.524Z,6.45
2022-08-12T02:39:29.180Z,7.88
2022-08-12T02:41:55.229Z,6.20
2022-08-12T02:44:20.956Z,5.82
2022-08-12T02:46:50.387Z,8.43
2022-08-12T02:49:24.271Z,6.55
2022-08-12T02:51:47.876Z,6.75
2022-08-12T02:54:11.897Z,7.20
2022-08-12T02:56:40.588Z,8.05
2022-08-12T02:59:04.890Z,7.13
2022-08-12T03:01:34.330Z,7.35
2022-08-12T03:04:02.604Z,6.10
2022-08-12T03:06:30.572Z,7.32
2022-08-12T03:09:00.547Z,8.85
2022-08-12T03:11:32.945Z,6.95
2022-08-12T03:14:03.459Z,5.88
2022-08-12T03:16:30.495Z,7.95
2022-08-12T03:18:58.971Z,10.63
2022-08-12T03:21:57.958Z,10.02
2022-08-12T03:24:10.073Z,5.47
2022-08-12T03:26:37.965Z,7.13
2022-08-12T03:29:06.907Z,8.48
2022-08-12T03:31:33.781Z,6.55
2022-08-12T03:34:04.477Z,6.60
2022-08-12T03:36:30.914Z,7.43
2022-08-12T03:39:19.907Z,5.88
2022-08-12T03:42:03.569Z,7.72
2022-08-12T03:44:52.438Z,8.25
2022-08-12T03:47:42.138Z,6.00
2022-08-12T03:50:25.485Z,5.50
2022-08-12T03:53:07.076Z,7.00
2022-08-12T03:55:48.516Z,4.57
2022-08-12T03:58:30.108Z,6.15
2022-08-12T04:00:53.870Z,6.10
2022-08-12T04:03:35.343Z,5.32
2022-08-12T04:06:00.655Z,8.18
2022-08-12T04:08:27.565Z,5.40
2022-08-12T04:11:08.965Z,5.15
2022-08-12T04:13:32.625Z,5.95
2022-08-12T04:15:56.770Z,9.50
2022-08-12T04:18:20.410Z,10.23
2022-08-12T04:20:49.978Z,6.40
2022-08-12T04:23:17.800Z,10.45
2022-08-12T04:25:42.969Z,6.55
2022-08-12T04:28:13.227Z,5.65
2022-08-12T04:30:40.180Z,6.93
2022-08-12T04:33:04.138Z,10.68
2022-08-12T04:35:28.242Z,5.93
2022-08-12T04:37:59.508Z,8.13
2022-08-12T04:40:28.815Z,7.93
2022-08-12T04:42:52.641Z,7.50
2022-08-12T04:45:19.330Z,9.13
2022-08-12T04:47:46.806Z,8.48
2022-08-12T04:50:34.112Z,7.68
2022-08-12T04:52:55.056Z,9.15
2022-08-12T04:55:18.792Z,7.55
2022-08-12T04:57:44.211Z,7.65
2022-08-12T05:00:11.979Z,6.60
2022-08-12T05:02:35.811Z,14.07
2022-08-12T05:05:00.791Z,9.45
2022-08-12T05:07:24.845Z,10.10
2022-08-12T05:10:01.985Z,10.23
2022-08-12T05:12:27.863Z,6.50
2022-08-12T05:14:52.884Z,7.80
2022-08-12T05:17:16.559Z,9.18
2022-08-12T05:19:40.221Z,6.97
2022-08-12T05:22:07.067Z,11.63
2022-08-12T05:24:30.698Z,9.48
2022-08-12T05:26:54.636Z,9.93
2022-08-12T05:30:07.972Z,10.93
2022-08-12T05:32:03.262Z,11.13
2022-08-12T05:34:29.724Z,11.40
2022-08-12T05:36:53.330Z,7.45
2022-08-12T05:39:17.125Z,8.68
2022-08-12T05:41:41.613Z,13.13
2022-08-12T05:44:08.935Z,11.60
2022-08-12T05:46:33.725Z,9.30
2022-08-12T05:49:00.784Z,8.88
2022-08-12T05:51:39.781Z,8.55
2022-08-12T05:54:05.849Z,8.68
2022-08-12T05:56:33.033Z,10.45
2022-08-12T05:58:58.571Z,8.05
2022-08-12T06:02:10.114Z,9.77
2022-08-12T06:04:09.776Z,12.45
2022-08-12T06:06:41.378Z,12.15
2022-08-12T06:09:05.234Z,12.25
2022-08-12T06:11:28.827Z,11.02
2022-08-12T06:13:54.489Z,13.43
2022-08-12T06:16:21.516Z,14.70
2022-08-12T06:18:45.844Z,12.35
2022-08-12T06:21:13.360Z,13.10
2022-08-12T06:23:42.272Z,9.13
2022-08-12T06:26:07.826Z,11.40
2022-08-12T06:28:31.834Z,10.80
2022-08-12T06:31:24.442Z,12.50
2022-08-12T06:33:59.447Z,15.07
2022-08-12T06:36:30.120Z,9.27
2022-08-12T06:38:57.032Z,15.43
2022-08-12T06:41:37.878Z,11.63
2022-08-12T06:44:08.047Z,12.60
2022-08-12T06:46:32.196Z,13.63
2022-08-12T06:48:59.225Z,10.20
2022-08-12T06:51:23.613Z,10.60
2022-08-12T06:53:48.580Z,11.23
2022-08-12T06:56:12.734Z,14.13
2022-08-12T06:58:37.419Z,10.82
2022-08-12T07:01:01.870Z,12.95
2022-08-12T07:03:28.935Z,9.50
2022-08-12T07:05:52.630Z,7.93
2022-08-12T07:08:16.898Z,7.60
2022-08-12T07:10:59.218Z,11.55
2022-08-12T07:13:23.675Z,11.88
2022-08-12T07:15:47.674Z,18.80
2022-08-12T07:18:16.202Z,8.15
2022-08-12T07:20:52.750Z,12.10
2022-08-12T07:23:18.742Z,12.07
2022-08-12T07:25:43.153Z,10.98
2022-08-12T07:28:16.875Z,10.15
2022-08-12T07:30:42.651Z,9.82
2022-08-12T07:33:08.676Z,6.85
2022-08-12T07:35:34.488Z,6.55
2022-08-12T07:37:58.525Z,6.65
2022-08-12T07:40:22.268Z,9.98
2022-08-12T07:42:46.755Z,7.82
2022-08-12T07:45:13.351Z,6.88
2022-08-12T07:47:37.944Z,7.00
2022-08-12T07:50:05.263Z,10.00
2022-08-12T07:52:30.425Z,7.70
2022-08-12T07:54:54.042Z,11.43
2022-08-12T07:57:17.714Z,6.50
2022-08-12T07:59:41.450Z,6.20
2022-08-12T08:02:08.675Z,9.00
2022-08-12T08:04:50.079Z,7.70
2022-08-12T08:07:15.958Z,7.40
2022-08-12T08:09:40.011Z,7.40
2022-08-12T08:12:21.066Z,13.45
2022-08-12T08:14:50.148Z,6.05
2022-08-12T08:17:15.266Z,4.40
2022-08-12T08:20:02.903Z,9.25
2022-08-12T08:22:32.102Z,7.25
2022-08-12T08:25:05.338Z,6.88
2022-08-12T08:27:48.915Z,4.55
2022-08-12T08:30:14.106Z,6.30
2022-08-12T08:32:39.617Z,4.93
2022-08-12T08:35:03.373Z,5.55
2022-08-12T08:37:31.080Z,3.55
2022-08-12T08:40:16.944Z,3.67
2022-08-12T08:42:40.545Z,4.38
2022-08-12T08:45:12.966Z,2.78
2022-08-12T08:47:46.423Z,4.75
2022-08-12T08:50:11.661Z,6.55
2022-08-12T08:52:40.624Z,3.22
2022-08-12T08:55:04.862Z,5.25
2022-08-12T08:57:43.969Z,5.57
2022-08-12T09:00:15.231Z,5.03
2022-08-12T09:02:39.454Z,6.35
2022-08-12T09:05:12.289Z,6.25
2022-08-12T09:10:32.351Z,4.18
2022-08-12T09:15:59.615Z,6.75
2022-08-12T09:18:30.846Z,7.57
2022-08-12T09:20:58.540Z,4.03
2022-08-12T09:26:11.359Z,2.47
2022-08-12T09:28:37.180Z,4.80
2022-08-12T09:31:01.691Z,6.88
2022-08-12T09:34:25.721Z,5.85
2022-08-12T09:36:30.556Z,3.67
2022-08-12T09:38:58.832Z,4.15
2022-08-12T09:42:34.255Z,3.53
2022-08-12T09:44:39.321Z,4.47
2022-08-12T09:47:03.603Z,5.35
2022-08-12T09:49:38.583Z,3.78
2022-08-12T09:52:07.270Z,3.25
2022-08-12T09:54:34.929Z,3.50
2022-08-12T09:57:03.880Z,4.13
2022-08-12T10:00:13.349Z,4.85
2022-08-12T10:02:44.298Z,4.80
2022-08-12T10:05:17.758Z,3.72
2022-08-12T10:07:45.577Z,2.92
2022-08-12T10:10:24.039Z,4.75
2022-08-12T10:13:07.047Z,5.60
2022-08-12T10:16:01.973Z,4.15
2022-08-12T10:18:19.613Z,3.85
2022-08-12T10:20:43.250Z,6.70
2022-08-12T10:23:08.959Z,5.15
2022-08-12T10:26:36.794Z,6.03
2022-08-12T10:29:02.998Z,6.15
2022-08-12T10:31:27.113Z,7.40
2022-08-12T10:34:23.475Z,6.40
2022-08-12T10:36:53.885Z,3.08
2022-08-12T10:40:00.678Z,3.40
2022-08-12T10:42:28.963Z,6.03
2022-08-12T10:44:53.474Z,3.00
2022-08-12T10:47:26.442Z,6.93
2022-08-12T10:50:35.866Z,4.82
2022-08-12T10:52:52.506Z,6.45
2022-08-12T10:55:18.356Z,3.05
2022-08-12T10:58:27.206Z,7.10
2022-08-12T11:00:34.631Z,4.22
2022-08-12T11:04:32.105Z,3.83
2022-08-12T11:07:06.572Z,7.05
2022-08-12T11:08:38.023Z,6.28
2022-08-12T11:11:13.707Z,3.08
2022-08-12T11:13:46.975Z,3.08
2022-08-12T11:16:21.770Z,5.22
2022-08-12T11:18:46.219Z,5.43
2022-08-12T11:21:18.416Z,4.68
2022-08-12T11:23:42.388Z,6.57
2022-08-12T11:26:08.466Z,4.30
2022-08-12T11:28:33.874Z,3.25
2022-08-12T11:30:58.859Z,4.95
2022-08-12T11:33:23.873Z,3.78
2022-08-12T11:35:48.105Z,6.07
2022-08-12T11:38:14.284Z,7.97
2022-08-12T11:40:43.926Z,4.00
2022-08-12T11:43:19.010Z,5.03
2022-08-12T11:45:46.898Z,3.25
2022-08-12T11:48:10.893Z,4.32
2022-08-12T11:50:42.074Z,4.25
2022-08-12T11:53:05.963Z,4.18
2022-08-12T11:55:49.586Z,3.20
2022-08-12T11:58:38.279Z,3.35
2022-08-12T12:03:46.324Z,3.58
2022-08-12T12:06:12.220Z,5.45
2022-08-12T12:08:43.357Z,6.60
2022-08-12T12:11:11.327Z,5.40
2022-08-12T12:14:08.432Z,3.55
2022-08-12T12:16:19.988Z,4.43
2022-08-12T12:18:43.778Z,4.47
2022-08-12T12:21:09.906Z,2.88
2022-08-12T12:23:36.398Z,4.43
2022-08-12T12:26:07.324Z,4.03
2022-08-12T12:28:36.858Z,4.35
2022-08-12T12:31:04.246Z,5.43
2022-08-12T12:33:57.534Z,6.40
2022-08-12T12:36:22.119Z,3.15
2022-08-12T12:38:47.996Z,4.38
2022-08-12T12:41:14.222Z,2.67
2022-08-12T12:43:43.542Z,5.88
2022-08-12T12:46:21.630Z,6.57
2022-08-12T12:48:45.693Z,5.85
2022-08-12T12:51:48.970Z,3.70
2022-08-12T12:54:07.619Z,5.63
2022-08-12T12:56:34.537Z,3.47
2022-08-12T12:59:00.735Z,3.78
2022-08-12T13:01:31.872Z,3.55
2022-08-12T13:04:02.426Z,3.08
2022-08-12T13:06:29.931Z,6.53
2022-08-12T13:08:54.509Z,5.63
2022-08-12T13:11:21.286Z,5.50
2022-08-12T13:14:10.465Z,2.88
2022-08-12T13:16:43.798Z,4.40
2022-08-12T13:19:07.920Z,3.50
2022-08-12T13:21:36.727Z,5.22
2022-08-12T13:24:09.674Z,5.10
2022-08-12T13:26:34.719Z,3.85
2022-08-12T13:28:58.279Z,2.80
2022-08-12T13:31:25.050Z,6.13
2022-08-12T13:34:33.583Z,3.92
2022-08-12T13:36:35.406Z,4.28
2022-08-12T13:38:59.058Z,7.18
2022-08-12T13:41:33.694Z,2.88
2022-08-12T13:43:57.321Z,6.05
2022-08-12T13:46:23.115Z,5.28
2022-08-12T13:48:46.719Z,2.85
2022-08-12T13:51:11.815Z,3.85
2022-08-12T13:53:40.217Z,3.17
2022-08-12T13:56:19.405Z,5.45
2022-08-12T13:58:49.114Z,2.75
2022-08-12T14:01:17.980Z,2.28
2022-08-12T14:03:50.112Z,5.32
2022-08-12T14:06:17.358Z,4.80
2022-08-12T14:08:41.231Z,7.22
2022-08-12T14:11:06.749Z,5.35
2022-08-12T14:14:03.717Z,4.97
2022-08-12T14:16:48.623Z,5.43
2022-08-12T14:19:15.279Z,3.40
2022-08-12T14:21:59.320Z,3.72
2022-08-12T14:24:26.980Z,3.97
2022-08-12T14:26:50.801Z,6.72
2022-08-12T14:29:21.843Z,6.22
2022-08-12T14:31:59.312Z,5.93
2022-08-12T14:34:28.245Z,2.22
2022-08-12T14:36:53.532Z,3.35
2022-08-12T14:39:17.857Z,5.40
2022-08-12T14:41:48.653Z,3.75
2022-08-12T14:44:57.890Z,4.15
2022-08-12T14:47:08.061Z,3.00
2022-08-12T14:50:37.368Z,2.55
2022-08-12T14:53:50.752Z,4.97
2022-08-12T14:57:56.893Z,5.85
2022-08-12T15:00:43.680Z,3.08
2022-08-12T15:03:10.929Z,2.88
2022-08-12T15:06:03.378Z,5.38
2022-08-12T15:08:27.177Z,4.53
2022-08-12T15:10:53.870Z,6.75
2022-08-12T15:13:19.791Z,5.05
2022-08-12T15:15:46.463Z,5.00
2022-08-12T15:18:10.720Z,7.85
2022-08-12T15:20:37.740Z,6.35
2022-08-12T15:23:02.897Z,2.20
2022-08-12T15:25:28.735Z,9.57
2022-08-12T15:28:05.463Z,3.53
2022-08-12T15:30:31.559Z,3.90
2022-08-12T15:32:56.546Z,6.65
2022-08-12T15:35:21.159Z,3.15
2022-08-12T15:38:09.408Z,2.25
2022-08-12T15:40:31.300Z,7.90
2022-08-12T15:42:55.704Z,5.03
2022-08-12T15:45:23.573Z,3.75
2022-08-12T15:47:49.765Z,5.35
2022-08-12T15:50:23.175Z,6.90
2022-08-12T15:52:47.189Z,4.20
2022-08-12T15:55:14.099Z,3.05
2022-08-12T15:57:53.487Z,4.35
2022-08-12T16:00:32.191Z,2.75
2022-08-12T16:02:59.665Z,6.03
2022-08-12T16:06:11.359Z,3.50
2022-08-12T16:08:17.199Z,4.70
2022-08-12T16:10:43.679Z,7.40
2022-08-12T16:13:32.315Z,5.60
2022-08-12T16:16:02.737Z,6.25
2022-08-12T16:18:26.713Z,6.55
2022-08-12T16:20:52.044Z,5.22
2022-08-12T16:23:36.386Z,2.55
2022-08-12T16:26:06.315Z,2.47
2022-08-12T16:28:39.640Z,5.18
2022-08-12T16:31:03.816Z,7.07
2022-08-12T16:33:59.158Z,3.33
2022-08-12T16:36:20.889Z,5.55
2022-08-12T16:38:46.098Z,4.22
2022-08-12T16:41:09.873Z,3.03
2022-08-12T16:43:35.201Z,4.78
2022-08-12T16:46:05.318Z,3.13
2022-08-12T16:48:46.592Z,3.50
2022-08-12T16:51:12.636Z,2.38
2022-08-12T16:53:44.024Z,3.60
2022-08-12T16:56:11.667Z,5.25
2022-08-12T16:58:35.874Z,5.22
2022-08-12T17:01:02.399Z,9.77
2022-08-12T17:03:28.773Z,6.47
2022-08-12T17:05:56.160Z,5.47
2022-08-12T17:08:21.604Z,6.70
2022-08-12T17:10:53.520Z,2.28
2022-08-12T17:13:17.876Z,3.83
2022-08-12T17:15:50.347Z,4.82
2022-08-12T17:18:43.743Z,3.97
2022-08-12T17:21:07.915Z,5.30
2022-08-12T17:23:33.283Z,6.60
2022-08-12T17:26:12.440Z,3.90
2022-08-12T17:28:38.929Z,5.65
2022-08-12T17:31:07.702Z,3.55
2022-08-12T17:33:35.900Z,4.28
2022-08-12T17:36:03.116Z,7.53
2022-08-12T17:38:27.410Z,5.63
2022-08-12T17:40:51.418Z,5.70
2022-08-12T17:43:54.922Z,8.30
2022-08-12T17:46:03.015Z,4.90
2022-08-12T17:48:35.031Z,7.05
2022-08-12T17:51:07.010Z,5.78
2022-08-12T17:53:43.663Z,6.35
2022-08-12T17:56:18.387Z,5.68
2022-08-12T17:58:51.266Z,4.68
2022-08-12T18:01:22.752Z,3.50
2022-08-12T18:03:57.752Z,4.95
2022-08-12T18:06:32.371Z,6.85
2022-08-12T18:08:58.732Z,2.72
2022-08-12T18:12:03.600Z,5.20
2022-08-12T18:14:27.883Z,6.75
2022-08-12T18:16:54.518Z,5.97
2022-08-12T18:19:19.462Z,3.58
2022-08-12T18:22:02.256Z,4.70
2022-08-12T18:24:29.313Z,8.57
2022-08-12T18:26:55.102Z,6.55
2022-08-12T18:29:21.080Z,6.35
2022-08-12T18:31:59.834Z,4.82
2022-08-12T18:34:27.858Z,6.45
2022-08-12T18:36:55.513Z,3.83
2022-08-12T18:39:20.388Z,3.10
2022-08-12T18:41:44.435Z,4.32
2022-08-12T18:44:10.095Z,3.70
2022-08-12T18:46:45.868Z,3.83
2022-08-12T18:49:17.205Z,3.47
2022-08-12T18:51:49.300Z,3.33
2022-08-12T18:54:21.725Z,5.53
2022-08-12T18:56:46.661Z,2.38
2022-08-12T19:00:00.011Z,5.15
2022-08-12T19:02:20.551Z,5.45
2022-08-12T19:04:47.789Z,5.03
2022-08-12T19:07:19.955Z,7.18
2022-08-12T19:09:59.250Z,7.97
2022-08-12T19:12:42.757Z,5.32
2022-08-12T19:15:19.528Z,4.63
2022-08-12T19:17:47.568Z,3.83
2022-08-12T19:20:24.424Z,4.90
2022-08-12T19:22:59.609Z,3.55
2022-08-12T19:25:59.786Z,5.15
2022-08-12T19:28:18.788Z,4.75
2022-08-12T19:31:11.069Z,3.53
2022-08-12T19:33:37.445Z,2.40
2022-08-12T19:36:24.090Z,3.30
2022-08-12T19:38:56.895Z,4.97
2022-08-12T19:41:23.001Z,8.32
2022-08-12T19:44:00.565Z,5.13
2022-08-12T19:46:34.490Z,3.22
2022-08-12T19:49:02.992Z,5.72
2022-08-12T19:51:35.673Z,4.95
2022-08-12T19:54:00.641Z,5.15
2022-08-12T19:56:27.334Z,5.32
2022-08-12T19:58:51.399Z,3.08
2022-08-12T20:01:17.655Z,5.20
2022-08-12T20:03:42.700Z,4.38
2022-08-12T20:06:14.163Z,4.75
2022-08-12T20:08:40.429Z,6.03
2022-08-12T20:12:14.724Z,3.47
2022-08-12T20:14:01.170Z,3.88
2022-08-12T20:16:47.384Z,4.85
2022-08-12T20:19:10.760Z,4.63
2022-08-12T20:21:40.446Z,5.30
2022-08-12T20:24:08.072Z,4.35
2022-08-12T20:26:34.922Z,2.10
2022-08-12T20:28:59.964Z,4.55
2022-08-12T20:31:23.579Z,4.85
2022-08-12T20:33:56.768Z,6.82
2022-08-12T20:36:41.501Z,4.82
2022-08-12T20:39:34.130Z,6.18
2022-08-12T20:41:50.982Z,6.50
2022-08-12T20:44:18.454Z,5.95
2022-08-12T20:46:42.100Z,6.18
2022-08-12T20:49:17.618Z,3.50
2022-08-12T20:51:55.019Z,3.70
2022-08-12T20:54:19.617Z,3.88
2022-08-12T20:56:43.836Z,9.50
2022-08-12T20:59:14.675Z,4.97
2022-08-12T21:01:47.761Z,6.07
2022-08-12T21:04:30.989Z,4.97
2022-08-12T21:06:57.993Z,3.65
2022-08-12T21:09:35.500Z,7.80
2022-08-12T21:12:24.715Z,3.70
2022-08-12T21:14:55.357Z,3.90
2022-08-12T21:18:01.185Z,7.03
2022-08-12T21:20:15.653Z,7.22
2022-08-12T21:22:46.151Z,3.92
2022-08-12T21:25:17.016Z,5.85
2022-08-12T21:27:59.196Z,5.63
2022-08-12T21:30:34.009Z,5.38
2022-08-12T21:33:02.318Z,4.97
2022-08-12T21:35:26.366Z,4.30
2022-08-12T21:37:52.910Z,3.55
2022-08-12T21:40:17.292Z,4.13
2022-08-12T21:42:42.124Z,7.60
2022-08-12T21:45:46.740Z,4.32
2022-08-12T21:47:53.356Z,6.32
2022-08-12T21:50:19.246Z,4.22
2022-08-12T21:52:43.376Z,4.07
2022-08-12T21:55:18.885Z,5.03
2022-08-12T21:57:51.263Z,5.15
2022-08-12T22:00:19.032Z,5.90
2022-08-12T22:03:02.420Z,5.95
2022-08-12T22:05:45.089Z,5.15
2022-08-12T22:08:08.929Z,5.38
2022-08-12T22:10:36.813Z,4.38
2022-08-12T22:13:01.272Z,6.57
2022-08-12T22:15:25.038Z,4.97
2022-08-12T22:17:55.437Z,5.80
2022-08-12T22:20:21.845Z,4.18
2022-08-12T22:22:56.491Z,3.80
2022-08-12T22:25:23.443Z,6.07
2022-08-12T22:28:04.586Z,5.68
2022-08-12T22:30:46.668Z,4.38
2022-08-12T22:33:15.464Z,4.88
2022-08-12T22:35:55.999Z,5.70
2022-08-12T22:38:29.202Z,6.40
2022-08-12T22:40:57.488Z,4.82
2022-08-12T22:43:58.604Z,5.40
2022-08-12T22:46:40.271Z,4.97
2022-08-12T22:49:15.871Z,4.45
2022-08-12T22:52:00.110Z,6.82
2022-08-12T22:54:37.078Z,3.25
2022-08-12T22:57:02.749Z,3.80
2022-08-12T22:59:27.204Z,4.03
2022-08-12T23:02:11.353Z,3.10
2022-08-12T23:04:36.988Z,4.82
2022-08-12T23:07:02.949Z,6.20
2022-08-12T23:09:44.895Z,3.70
2022-08-12T23:12:22.420Z,6.00
2022-08-12T23:14:48.582Z,6.30
2022-08-12T23:17:39.854Z,4.57
2022-08-12T23:19:55.883Z,8.80
2022-08-12T23:22:36.281Z,3.67
2022-08-12T23:25:02.280Z,5.38
2022-08-12T23:27:52.120Z,5.75
2022-08-12T23:30:25.168Z,11.25
2022-08-12T23:32:59.890Z,7.30
2022-08-12T23:35:24.057Z,3.63
2022-08-12T23:38:08.256Z,5.60
2022-08-12T23:40:33.463Z,2.50
2022-08-12T23:43:00.322Z,5.30
2022-08-12T23:45:31.080Z,3.92
2022-08-12T23:47:57.045Z,4.03
2022-08-12T23:50:24.006Z,5.63
2022-08-12T23:52:57.410Z,8.77
2022-08-12T23:55:25.009Z,3.35
2022-08-12T23:58:22.810Z,5.15
